Time;durP1;ratioP1;P1;durP2;ratioP2;P2;SDS_P1;SDS_P2;PMS_P1;PMS_P2;Temp;Humidity;BMP_temperature;BMP_pressure;BME280_temperature;BME280_humidity;BME280_pressure;Samples;Min_cycle;Max_cycle;Signal;HPM_P1;HPM_P2
2021/08/03 00:02:21;;;;;;;;;;;13.10;99.90;;;;;;5047022;28;20274;-79
2021/08/03 00:04:49;;;;;;;;;;;13.10;99.90;;;;;;5044010;28;19913;-79
2021/08/03 00:07:17;;;;;;;;;;;13.10;99.90;;;;;;5051938;28;19913;-78
2021/08/03 00:09:43;;;;;;;;;;;13.20;99.90;;;;;;5047823;28;19917;-77
2021/08/03 00:12:11;;;;;;;;;;;13.20;99.90;;;;;;5048347;28;19951;-79
2021/08/03 00:14:41;;;;;;;;;;;13.20;99.90;;;;;;5043221;28;20211;-78
2021/08/03 00:17:09;;;;;;;;;;;13.20;99.90;;;;;;5049969;28;19956;-77
2021/08/03 00:19:35;;;;;;;;;;;13.20;99.90;;;;;;5046365;28;20011;-79
2021/08/03 00:22:01;;;;;;;;;;;13.20;99.90;;;;;;5051673;28;19936;-78
2021/08/03 00:24:27;;;;;;;;;;;13.20;99.90;;;;;;5050841;28;19917;-78
2021/08/03 00:26:53;;;;;;;;;;;13.20;99.90;;;;;;5052705;28;19912;-79
2021/08/03 00:29:18;;;;;;;;;;;13.20;99.90;;;;;;5049220;28;19966;-77
2021/08/03 00:31:44;;;;;;;;;;;13.20;99.90;;;;;;5049569;28;20370;-79
2021/08/03 00:34:10;;;;;;;;;;;13.20;99.90;;;;;;5054133;28;19913;-79
2021/08/03 00:36:35;;;;;;;;;;;13.20;99.90;;;;;;5057319;28;20375;-79
2021/08/03 00:39:01;;;;;;;;;;;13.30;99.90;;;;;;5070032;28;19928;-78
2021/08/03 00:41:28;;;;;;;;;;;13.40;99.90;;;;;;5076285;28;20011;-78
2021/08/03 00:43:54;;;;;;;;;;;13.50;99.90;;;;;;5058779;28;19955;-79
2021/08/03 00:46:19;;;;;;;;;;;13.50;99.90;;;;;;5075538;28;19944;-78
2021/08/03 00:48:45;;;;;;;;;;;13.50;99.90;;;;;;5068085;28;19919;-79
2021/08/03 00:51:11;;;;;;;;;;;13.50;99.90;;;;;;5041032;28;19935;-78
2021/08/03 00:53:36;;;;;;;;;;;13.50;99.90;;;;;;5074618;28;20223;-78
2021/08/03 00:56:02;;;;;;;;;;;13.50;99.90;;;;;;5055274;28;19913;-78
2021/08/03 00:58:28;;;;;;;;;;;13.50;99.90;;;;;;5073647;28;19927;-79
2021/08/03 01:00:55;;;;;;;;;;;13.40;99.90;;;;;;5059256;28;19908;-79
2021/08/03 01:03:21;;;;;;;;;;;13.50;99.90;;;;;;5057267;28;20287;-79
2021/08/03 01:06:05;;;;;;;;;;;13.50;99.90;;;;;;5070877;28;19924;-78
2021/08/03 01:08:52;;;;;;;;;;;13.60;99.90;;;;;;5072869;28;19916;-79
2021/08/03 01:11:21;;;;;;;;;;;13.60;99.90;;;;;;5067889;28;19995;-79
2021/08/03 01:13:53;;;;;;;;;;;13.40;99.90;;;;;;5063357;28;19916;-79
2021/08/03 01:16:30;;;;;;;;;;;13.40;99.90;;;;;;5049874;28;19912;-78
2021/08/03 01:18:59;;;;;;;;;;;13.40;99.90;;;;;;5058415;28;19916;-79
2021/08/03 01:21:31;;;;;;;;;;;13.40;99.90;;;;;;5057254;28;19908;-80
2021/08/03 01:24:17;;;;;;;;;;;13.50;99.90;;;;;;5056447;28;19965;-78
2021/08/03 01:26:43;;;;;;;;;;;13.40;99.90;;;;;;5055558;28;19917;-78
2021/08/03 01:29:09;;;;;;;;;;;13.50;99.90;;;;;;5057274;28;19965;-79
2021/08/03 01:31:41;;;;;;;;;;;13.50;99.90;;;;;;5057408;28;19912;-79
2021/08/03 01:34:09;;;;;;;;;;;13.40;99.90;;;;;;5072961;28;20612;-80
2021/08/03 01:36:37;;;;;;;;;;;13.40;99.90;;;;;;5069970;28;19913;-79
2021/08/03 01:39:04;;;;;;;;;;;13.40;99.90;;;;;;5051498;28;19931;-80
2021/08/03 01:41:30;;;;;;;;;;;13.40;99.90;;;;;;5055026;28;20291;-77
2021/08/03 01:43:56;;;;;;;;;;;13.30;99.90;;;;;;5049505;28;19943;-79
2021/08/03 01:46:22;;;;;;;;;;;13.30;99.90;;;;;;5053240;28;19916;-78
2021/08/03 01:48:49;;;;;;;;;;;13.40;99.90;;;;;;5050958;28;19917;-78
2021/08/03 01:51:15;;;;;;;;;;;13.40;99.90;;;;;;5051829;28;19913;-78
2021/08/03 01:53:41;;;;;;;;;;;13.50;99.90;;;;;;5053001;28;19912;-78
2021/08/03 01:56:07;;;;;;;;;;;13.50;99.90;;;;;;5053726;28;20054;-78
2021/08/03 01:58:36;;;;;;;;;;;13.40;99.90;;;;;;5054210;28;20198;-78
2021/08/03 02:01:02;;;;;;;;;;;13.40;99.90;;;;;;5050880;28;19970;-78
2021/08/03 02:03:28;;;;;;;;;;;13.30;99.90;;;;;;5050660;28;20280;-79
2021/08/03 02:05:55;;;;;;;;;;;13.30;99.90;;;;;;5049131;28;19935;-79
2021/08/03 02:08:21;;;;;;;;;;;13.40;99.90;;;;;;5052756;28;19916;-78
2021/08/03 02:10:47;;;;;;;;;;;13.30;99.90;;;;;;5054016;28;20008;-79
2021/08/03 02:13:13;;;;;;;;;;;13.30;99.90;;;;;;5051516;28;19952;-78
2021/08/03 02:15:39;;;;;;;;;;;13.30;99.90;;;;;;5049415;28;20015;-78
2021/08/03 02:18:05;;;;;;;;;;;13.30;99.90;;;;;;5054822;28;19913;-78
2021/08/03 02:20:30;;;;;;;;;;;13.20;99.90;;;;;;5050584;28;19994;-79
2021/08/03 02:22:56;;;;;;;;;;;13.20;99.90;;;;;;5051822;28;19918;-78
2021/08/03 02:25:22;;;;;;;;;;;13.20;99.90;;;;;;5053446;28;20424;-78
2021/08/03 02:27:47;;;;;;;;;;;13.10;99.90;;;;;;5054670;28;19917;-78
2021/08/03 02:30:13;;;;;;;;;;;13.10;99.90;;;;;;5052558;28;19924;-78
2021/08/03 02:33:00;;;;;;;;;;;13.10;99.90;;;;;;5052757;28;19921;-78
2021/08/03 02:35:35;;;;;;;;;;;13.10;99.90;;;;;;5052584;28;20220;-78
2021/08/03 02:38:03;;;;;;;;;;;13.10;99.90;;;;;;5058489;28;19924;-78
2021/08/03 02:40:29;;;;;;;;;;;13.00;99.90;;;;;;5074499;28;20334;-78
2021/08/03 02:42:55;;;;;;;;;;;12.90;99.90;;;;;;5069445;28;19912;-80
2021/08/03 02:45:21;;;;;;;;;;;12.80;99.90;;;;;;5070159;28;20382;-78
2021/08/03 02:47:53;;;;;;;;;;;12.70;99.90;;;;;;5046632;28;20031;-79
2021/08/03 02:50:20;;;;;;;;;;;12.70;99.90;;;;;;5051257;28;19915;-78
2021/08/03 02:52:46;;;;;;;;;;;12.60;99.90;;;;;;5072668;28;19913;-78
2021/08/03 02:55:15;;;;;;;;;;;12.60;99.90;;;;;;5055877;28;19912;-78
2021/08/03 02:57:43;;;;;;;;;;;12.60;99.90;;;;;;5069388;28;19966;-79
2021/08/03 03:00:09;;;;;;;;;;;12.70;99.90;;;;;;5054577;28;20300;-78
2021/08/03 03:02:37;;;;;;;;;;;12.70;99.90;;;;;;5060029;28;19913;-78
2021/08/03 03:05:05;;;;;;;;;;;12.80;99.90;;;;;;5071206;28;19916;-78
2021/08/03 03:07:37;;;;;;;;;;;12.80;99.90;;;;;;5061986;28;19917;-79
2021/08/03 03:10:05;;;;;;;;;;;12.80;99.90;;;;;;5074735;28;19916;-79
2021/08/03 03:12:33;;;;;;;;;;;12.80;99.90;;;;;;5051576;28;19908;-78
2021/08/03 03:15:01;;;;;;;;;;;12.80;99.90;;;;;;5061562;28;19913;-78
2021/08/03 03:17:29;;;;;;;;;;;12.90;99.90;;;;;;5071742;28;19917;-78
2021/08/03 03:19:56;;;;;;;;;;;12.90;99.90;;;;;;5053638;28;19939;-79
2021/08/03 03:22:22;;;;;;;;;;;12.90;99.90;;;;;;5056843;28;19962;-79
2021/08/03 03:24:48;;;;;;;;;;;12.90;99.90;;;;;;5068660;28;19923;-79
2021/08/03 03:27:15;;;;;;;;;;;12.90;99.90;;;;;;5073372;28;19998;-78
2021/08/03 03:29:41;;;;;;;;;;;12.90;99.90;;;;;;5054414;28;19916;-79
2021/08/03 03:32:06;;;;;;;;;;;12.80;99.90;;;;;;5074452;28;19995;-80
2021/08/03 03:34:33;;;;;;;;;;;12.80;99.90;;;;;;5071908;28;19919;-77
2021/08/03 03:36:59;;;;;;;;;;;12.60;99.90;;;;;;5074128;28;19920;-78
2021/08/03 03:39:24;;;;;;;;;;;12.60;99.90;;;;;;5033997;28;19921;-79
2021/08/03 03:41:52;;;;;;;;;;;12.50;99.90;;;;;;5029528;28;20599;-78
2021/08/03 03:44:18;;;;;;;;;;;12.40;99.90;;;;;;5026131;28;20000;-79
2021/08/03 03:46:52;;;;;;;;;;;12.30;99.90;;;;;;5027721;28;20051;-78
2021/08/03 03:49:19;;;;;;;;;;;12.30;99.90;;;;;;5030339;28;20228;-78
2021/08/03 03:51:45;;;;;;;;;;;12.30;99.90;;;;;;5032030;28;19913;-78
2021/08/03 03:54:13;;;;;;;;;;;12.20;99.90;;;;;;5031229;28;19924;-78
2021/08/03 03:56:58;;;;;;;;;;;12.20;99.90;;;;;;5032713;28;20188;-78
2021/08/03 03:59:24;;;;;;;;;;;12.20;99.90;;;;;;5032484;28;20421;-77
2021/08/03 04:01:50;;;;;;;;;;;12.10;99.90;;;;;;5026079;28;19921;-78
2021/08/03 04:04:17;;;;;;;;;;;12.10;99.90;;;;;;5025115;28;19917;-79
2021/08/03 04:06:42;;;;;;;;;;;12.10;99.90;;;;;;5031117;28;20351;-78
2021/08/03 04:09:18;;;;;;;;;;;12.00;99.90;;;;;;5035878;28;19917;-78
2021/08/03 04:11:48;;;;;;;;;;;12.00;99.90;;;;;;5036916;28;20280;-78
2021/08/03 04:14:16;;;;;;;;;;;12.00;99.90;;;;;;5035662;28;19921;-77
2021/08/03 04:16:42;;;;;;;;;;;12.00;99.90;;;;;;5037132;28;19924;-78
2021/08/03 04:19:07;;;;;;;;;;;12.00;99.90;;;;;;5035013;28;19935;-78
2021/08/03 04:21:33;;;;;;;;;;;12.10;99.90;;;;;;5029174;28;20284;-78
2021/08/03 04:23:59;;;;;;;;;;;12.20;99.90;;;;;;5026567;28;19956;-78
2021/08/03 04:26:24;;;;;;;;;;;12.20;99.90;;;;;;5033218;28;19913;-77
2021/08/03 04:28:50;;;;;;;;;;;12.30;99.90;;;;;;5037099;28;19909;-78
2021/08/03 04:31:15;;;;;;;;;;;12.30;99.90;;;;;;5032561;28;19967;-78
2021/08/03 04:33:41;;;;;;;;;;;12.30;99.90;;;;;;5035811;28;19913;-78
2021/08/03 04:36:06;;;;;;;;;;;12.30;99.90;;;;;;5034803;28;19923;-78
2021/08/03 04:38:32;;;;;;;;;;;12.30;99.90;;;;;;5055643;28;20011;-79
2021/08/03 04:40:57;;;;;;;;;;;12.30;99.90;;;;;;5056318;28;19917;-78
2021/08/03 04:43:23;;;;;;;;;;;12.20;99.90;;;;;;5074253;28;20019;-78
2021/08/03 04:45:48;;;;;;;;;;;12.10;99.90;;;;;;5052750;28;20280;-78
2021/08/03 04:48:14;;;;;;;;;;;12.10;99.90;;;;;;5052475;28;20233;-78
2021/08/03 04:50:40;;;;;;;;;;;12.10;99.90;;;;;;5068932;28;19920;-79
2021/08/03 04:53:05;;;;;;;;;;;12.10;99.90;;;;;;5055671;28;20216;-78
2021/08/03 04:55:31;;;;;;;;;;;12.20;99.90;;;;;;5054335;28;19928;-78
2021/08/03 04:57:57;;;;;;;;;;;12.20;99.90;;;;;;5069677;28;20458;-77
2021/08/03 05:00:22;;;;;;;;;;;12.30;99.90;;;;;;5054268;28;19928;-78
2021/08/03 05:02:48;;;;;;;;;;;12.30;99.90;;;;;;5073366;28;19919;-78
2021/08/03 05:05:13;;;;;;;;;;;12.30;99.90;;;;;;5073842;28;19913;-77
2021/08/03 05:07:39;;;;;;;;;;;12.30;99.90;;;;;;5055363;28;20211;-78
2021/08/03 05:10:13;;;;;;;;;;;12.40;99.90;;;;;;5074248;28;20303;-78
2021/08/03 05:12:39;;;;;;;;;;;12.40;99.90;;;;;;5072637;28;19919;-78
2021/08/03 05:15:06;;;;;;;;;;;12.40;99.90;;;;;;5053817;28;19920;-78
2021/08/03 05:17:32;;;;;;;;;;;12.40;99.90;;;;;;5056333;28;19917;-78
2021/08/03 05:19:58;;;;;;;;;;;12.40;99.90;;;;;;5052342;28;19916;-78
2021/08/03 05:22:24;;;;;;;;;;;12.40;99.90;;;;;;5074570;28;19923;-78
2021/08/03 05:24:49;;;;;;;;;;;12.40;99.90;;;;;;5074090;28;19913;-78
2021/08/03 05:27:15;;;;;;;;;;;12.50;99.90;;;;;;5055450;28;19923;-78
2021/08/03 05:29:40;;;;;;;;;;;12.40;99.90;;;;;;5066296;28;20328;-78
2021/08/03 05:32:06;;;;;;;;;;;12.30;99.90;;;;;;5063132;28;19972;-77
2021/08/03 05:34:31;;;;;;;;;;;12.20;99.90;;;;;;5068296;28;19912;-79
2021/08/03 05:36:57;;;;;;;;;;;12.30;99.90;;;;;;5050165;28;19916;-78
2021/08/03 05:39:22;;;;;;;;;;;12.40;99.90;;;;;;5066507;28;19928;-78
2021/08/03 05:41:48;;;;;;;;;;;12.50;99.90;;;;;;5053501;28;19916;-78
2021/08/03 05:44:14;;;;;;;;;;;12.50;99.90;;;;;;5068350;28;19928;-78
2021/08/03 05:46:39;;;;;;;;;;;12.60;99.90;;;;;;5050590;28;19923;-78
2021/08/03 05:49:05;;;;;;;;;;;12.70;99.90;;;;;;5066763;28;19952;-78
2021/08/03 05:51:30;;;;;;;;;;;12.80;99.90;;;;;;5067511;28;20003;-78
2021/08/03 05:53:56;;;;;;;;;;;12.80;99.90;;;;;;5048900;28;20007;-79
2021/08/03 05:56:21;;;;;;;;;;;12.80;99.90;;;;;;5049157;28;19924;-79
2021/08/03 05:58:47;;;;;;;;;;;12.80;99.90;;;;;;5048803;28;19917;-77
2021/08/03 06:01:12;;;;;;;;;;;12.80;99.90;;;;;;5064426;28;19920;-79
2021/08/03 06:03:38;;;;;;;;;;;12.90;99.90;;;;;;5047333;28;19913;-78
2021/08/03 06:06:07;;;;;;;;;;;12.90;99.90;;;;;;5047435;28;19917;-79
2021/08/03 06:08:33;;;;;;;;;;;13.00;99.90;;;;;;5068534;28;20220;-78
2021/08/03 06:10:59;;;;;;;;;;;13.10;99.90;;;;;;5046372;28;19916;-78
2021/08/03 06:13:25;;;;;;;;;;;13.20;99.90;;;;;;5065266;28;19924;-78
2021/08/03 06:15:51;;;;;;;;;;;13.20;99.90;;;;;;5049810;28;19912;-79
2021/08/03 06:18:23;;;;;;;;;;;13.30;99.90;;;;;;5065677;28;20243;-78
2021/08/03 06:20:48;;;;;;;;;;;13.40;99.90;;;;;;5062926;28;19969;-79
2021/08/03 06:23:15;;;;;;;;;;;13.40;99.90;;;;;;5045874;28;19920;-78
2021/08/03 06:25:40;;;;;;;;;;;13.50;99.90;;;;;;5046850;28;20011;-79
2021/08/03 06:28:06;;;;;;;;;;;13.50;99.90;;;;;;5067791;28;20010;-79
2021/08/03 06:30:33;;;;;;;;;;;13.60;99.90;;;;;;5046289;28;19913;-78
2021/08/03 06:33:00;;;;;;;;;;;13.60;99.90;;;;;;5056071;28;19921;-79
2021/08/03 06:35:27;;;;;;;;;;;13.70;99.90;;;;;;5055801;28;19917;-77
2021/08/03 06:37:52;;;;;;;;;;;13.80;99.90;;;;;;5054453;28;19924;-78
2021/08/03 06:40:18;;;;;;;;;;;14.00;99.90;;;;;;5057085;28;20113;-77
2021/08/03 06:42:44;;;;;;;;;;;14.10;99.90;;;;;;5049955;28;19916;-78
2021/08/03 06:45:20;;;;;;;;;;;14.20;99.90;;;;;;5047558;28;19923;-79
2021/08/03 06:47:53;;;;;;;;;;;14.40;99.90;;;;;;5047377;28;19916;-78
2021/08/03 06:50:21;;;;;;;;;;;14.40;99.90;;;;;;5068661;28;19939;-79
2021/08/03 06:52:48;;;;;;;;;;;14.60;99.90;;;;;;5053484;28;19912;-78
2021/08/03 06:55:15;;;;;;;;;;;14.80;99.90;;;;;;5051835;28;19951;-78
2021/08/03 06:57:44;;;;;;;;;;;14.90;99.90;;;;;;5051631;28;19959;-78
2021/08/03 07:00:10;;;;;;;;;;;15.00;99.90;;;;;;5067397;28;20304;-78
2021/08/03 07:02:37;;;;;;;;;;;15.10;99.90;;;;;;5065040;28;19924;-78
2021/08/03 07:05:06;;;;;;;;;;;15.20;99.90;;;;;;5053978;28;20004;-78
2021/08/03 07:07:33;;;;;;;;;;;15.30;99.90;;;;;;5072390;28;19917;-77
2021/08/03 07:10:00;;;;;;;;;;;15.30;99.90;;;;;;5069834;28;19917;-77
2021/08/03 07:12:26;;;;;;;;;;;15.40;99.90;;;;;;5064508;28;19921;-77
2021/08/03 07:14:53;;;;;;;;;;;15.40;99.90;;;;;;5070184;28;19920;-77
2021/08/03 07:17:19;;;;;;;;;;;15.50;99.90;;;;;;5061679;28;19919;-78
2021/08/03 07:19:45;;;;;;;;;;;15.50;99.90;;;;;;5052736;28;19916;-77
2021/08/03 07:22:11;;;;;;;;;;;15.50;99.90;;;;;;5064911;28;19952;-77
2021/08/03 07:24:37;;;;;;;;;;;15.60;99.90;;;;;;5062969;28;19997;-78
2021/08/03 07:27:03;;;;;;;;;;;15.70;99.90;;;;;;5050304;28;20269;-76
2021/08/03 07:29:29;;;;;;;;;;;15.80;99.90;;;;;;5046309;28;20308;-78
2021/08/03 07:31:55;;;;;;;;;;;15.80;99.90;;;;;;5067161;28;19917;-78
2021/08/03 07:34:20;;;;;;;;;;;15.90;99.90;;;;;;5063741;28;20223;-78
2021/08/03 07:36:46;;;;;;;;;;;15.90;99.90;;;;;;5048982;28;19928;-77
2021/08/03 07:39:12;;;;;;;;;;;16.00;99.90;;;;;;5052557;28;20342;-78
2021/08/03 07:41:38;;;;;;;;;;;15.90;99.90;;;;;;5066129;28;19917;-78
2021/08/03 07:44:04;;;;;;;;;;;16.00;99.90;;;;;;5066248;28;19909;-78
2021/08/03 07:46:30;;;;;;;;;;;16.20;99.90;;;;;;5068939;28;19916;-78
2021/08/03 07:48:57;;;;;;;;;;;16.30;99.90;;;;;;5068783;28;19920;-77
2021/08/03 07:51:22;;;;;;;;;;;16.30;99.90;;;;;;5071054;28;20118;-78
2021/08/03 07:53:48;;;;;;;;;;;16.20;99.90;;;;;;5056106;28;19928;-77
2021/08/03 07:56:14;;;;;;;;;;;16.20;99.90;;;;;;5071928;28;20303;-77
2021/08/03 07:58:40;;;;;;;;;;;16.20;99.90;;;;;;5070408;28;20223;-77
2021/08/03 08:01:05;;;;;;;;;;;16.10;99.90;;;;;;5069713;28;19912;-78
2021/08/03 08:03:32;;;;;;;;;;;16.20;99.90;;;;;;5067039;28;19917;-78
2021/08/03 08:05:57;;;;;;;;;;;16.20;99.90;;;;;;5048822;28;20515;-77
2021/08/03 08:08:23;;;;;;;;;;;16.20;99.90;;;;;;5053055;28;20354;-77
2021/08/03 08:10:48;;;;;;;;;;;16.20;99.90;;;;;;5065188;28;20284;-78
2021/08/03 08:13:14;;;;;;;;;;;16.20;99.90;;;;;;5057045;28;20211;-78
2021/08/03 08:15:40;;;;;;;;;;;16.20;99.90;;;;;;5070735;28;20346;-78
2021/08/03 08:18:08;;;;;;;;;;;16.20;99.90;;;;;;5066547;28;19917;-77
2021/08/03 08:20:38;;;;;;;;;;;16.30;99.90;;;;;;5055308;28;20300;-78
2021/08/03 08:23:04;;;;;;;;;;;16.30;99.90;;;;;;5066700;28;20212;-78
2021/08/03 08:25:29;;;;;;;;;;;16.40;99.90;;;;;;5065478;28;19917;-78
2021/08/03 08:27:55;;;;;;;;;;;16.40;99.90;;;;;;5050365;28;19935;-78
2021/08/03 08:30:20;;;;;;;;;;;16.50;99.90;;;;;;5052420;28;19959;-78
2021/08/03 08:32:46;;;;;;;;;;;16.60;99.90;;;;;;5054469;28;20019;-77
2021/08/03 08:35:11;;;;;;;;;;;16.70;99.90;;;;;;5073503;28;20296;-78
2021/08/03 08:37:37;;;;;;;;;;;16.70;99.90;;;;;;5075500;28;20296;-77
2021/08/03 08:40:06;;;;;;;;;;;16.70;99.90;;;;;;5074487;28;20053;-78
2021/08/03 08:42:32;;;;;;;;;;;16.70;99.90;;;;;;5051629;28;19925;-78
2021/08/03 08:44:58;;;;;;;;;;;16.60;99.90;;;;;;5061402;28;19927;-78
2021/08/03 08:47:24;;;;;;;;;;;16.60;99.90;;;;;;5059271;28;20265;-77
2021/08/03 08:49:50;;;;;;;;;;;16.50;99.90;;;;;;5057618;28;19935;-78
2021/08/03 08:52:16;;;;;;;;;;;16.50;99.90;;;;;;5073627;28;20244;-77
2021/08/03 08:54:41;;;;;;;;;;;16.50;99.90;;;;;;5070258;28;19920;-77
2021/08/03 08:57:07;;;;;;;;;;;16.50;99.90;;;;;;5056581;28;19923;-77
2021/08/03 08:59:33;;;;;;;;;;;16.50;99.90;;;;;;5059018;28;19955;-79
2021/08/03 09:01:58;;;;;;;;;;;16.50;99.90;;;;;;5054009;28;19917;-78
2021/08/03 09:04:24;;;;;;;;;;;16.40;99.90;;;;;;5073783;28;19938;-79
2021/08/03 09:07:00;;;;;;;;;;;16.40;99.90;;;;;;5074471;28;19936;-79
2021/08/03 09:09:26;;;;;;;;;;;16.40;99.90;;;;;;5057427;28;19912;-78
2021/08/03 09:11:51;;;;;;;;;;;16.40;99.90;;;;;;5058267;28;19912;-78
2021/08/03 09:14:31;;;;;;;;;;;16.40;99.90;;;;;;5052432;28;19961;-78
2021/08/03 09:16:59;;;;;;;;;;;16.40;99.90;;;;;;5076046;28;19916;-78
2021/08/03 09:19:30;;;;;;;;;;;16.50;99.90;;;;;;5075203;28;19922;-79
2021/08/03 09:22:09;;;;;;;;;;;16.50;99.90;;;;;;5058554;28;19967;-78
2021/08/03 09:24:35;;;;;;;;;;;16.50;99.90;;;;;;5054576;28;19920;-78
2021/08/03 09:27:00;;;;;;;;;;;16.50;99.90;;;;;;5073457;28;19913;-79
2021/08/03 09:29:26;;;;;;;;;;;16.50;99.90;;;;;;5073522;28;19913;-78
2021/08/03 09:31:54;;;;;;;;;;;16.50;99.90;;;;;;5072310;28;19921;-78
2021/08/03 09:34:19;;;;;;;;;;;16.50;99.90;;;;;;5071557;28;19909;-78
2021/08/03 09:36:58;;;;;;;;;;;16.50;99.90;;;;;;5055852;28;19927;-78
2021/08/03 09:39:38;;;;;;;;;;;16.60;99.90;;;;;;5053322;28;19921;-79
2021/08/03 09:42:05;;;;;;;;;;;16.60;99.90;;;;;;5053270;28;20007;-79
2021/08/03 09:44:31;;;;;;;;;;;16.60;99.90;;;;;;5059291;28;20329;-78
2021/08/03 09:46:57;;;;;;;;;;;16.70;99.90;;;;;;5057295;28;19963;-79
2021/08/03 09:49:39;;;;;;;;;;;16.80;99.90;;;;;;5075445;28;20179;-78
2021/08/03 09:52:09;;;;;;;;;;;16.80;99.90;;;;;;5051970;28;19916;-78
2021/08/03 09:54:35;;;;;;;;;;;16.80;99.90;;;;;;5069132;28;19978;-78
2021/08/03 09:57:01;;;;;;;;;;;16.90;99.90;;;;;;5057262;28;19916;-78
2021/08/03 09:59:34;;;;;;;;;;;17.10;99.90;;;;;;5057678;28;20337;-78
2021/08/03 10:02:00;;;;;;;;;;;17.20;99.90;;;;;;5056670;28;19919;-78
2021/08/03 10:04:26;;;;;;;;;;;17.30;99.90;;;;;;5075017;28;19917;-79
2021/08/03 10:06:51;;;;;;;;;;;17.50;99.90;;;;;;5053260;28;20160;-78
2021/08/03 10:09:18;;;;;;;;;;;17.80;99.90;;;;;;5055323;28;19912;-78
2021/08/03 10:11:44;;;;;;;;;;;18.20;99.90;;;;;;5048074;28;19916;-79
2021/08/03 10:14:10;;;;;;;;;;;18.50;99.90;;;;;;5060663;28;20215;-78
2021/08/03 10:16:35;;;;;;;;;;;18.50;99.90;;;;;;5066029;28;19917;-79
2021/08/03 10:19:01;;;;;;;;;;;18.50;99.90;;;;;;5064622;28;20050;-79
2021/08/03 10:21:47;;;;;;;;;;;18.50;99.90;;;;;;5045440;28;20299;-82
2021/08/03 10:24:22;;;;;;;;;;;18.40;99.90;;;;;;5065569;28;20003;-79
2021/08/03 10:27:07;;;;;;;;;;;18.30;99.90;;;;;;5046635;28;20421;-78
2021/08/03 10:29:39;;;;;;;;;;;18.10;99.90;;;;;;5063468;28;19955;-79
2021/08/03 10:32:05;;;;;;;;;;;18.00;99.90;;;;;;5046086;28;19913;-80
2021/08/03 10:34:49;;;;;;;;;;;17.90;99.90;;;;;;5041833;28;19935;-79
2021/08/03 10:37:14;;;;;;;;;;;18.00;99.90;;;;;;5057850;28;20209;-81
2021/08/03 10:43:33;;;;;;;;;;;18.10;99.90;;;;;;5065056;28;19920;-79
2021/08/03 10:46:07;;;;;;;;;;;18.10;99.90;;;;;;4978217;28;19918;-79
2021/08/03 10:48:39;;;;;;;;;;;18.30;99.90;;;;;;4978273;28;19922;-79
2021/08/03 10:51:15;;;;;;;;;;;18.40;99.90;;;;;;4969991;28;19914;-80
2021/08/03 10:53:53;;;;;;;;;;;18.40;99.90;;;;;;4984226;28;19918;-78
2021/08/03 10:56:19;;;;;;;;;;;18.30;99.90;;;;;;4981641;28;20284;-78
2021/08/03 10:58:44;;;;;;;;;;;18.30;99.90;;;;;;4965647;28;20090;-80
2021/08/03 11:01:10;;;;;;;;;;;18.20;99.90;;;;;;4986426;28;19920;-79
2021/08/03 11:03:36;;;;;;;;;;;18.40;99.90;;;;;;4983415;28;19957;-78
2021/08/03 11:06:10;;;;;;;;;;;18.50;99.90;;;;;;4968295;28;19929;-78
2021/08/03 11:08:38;;;;;;;;;;;18.60;99.90;;;;;;4968717;28;19921;-78
2021/08/03 11:11:06;;;;;;;;;;;18.70;99.90;;;;;;4998126;28;20244;-80
2021/08/03 11:13:41;;;;;;;;;;;18.80;99.90;;;;;;4976785;28;19933;-78
2021/08/03 11:16:30;;;;;;;;;;;18.70;99.90;;;;;;5016793;28;20273;-82
2021/08/03 11:19:00;;;;;;;;;;;18.80;99.90;;;;;;5064839;28;19916;-80
2021/08/03 11:21:27;;;;;;;;;;;19.00;99.90;;;;;;5045766;28;19944;-82
2021/08/03 11:24:07;;;;;;;;;;;19.00;99.90;;;;;;5062785;28;19920;-79
2021/08/03 11:26:37;;;;;;;;;;;18.90;99.90;;;;;;5057070;28;19955;-79
2021/08/03 11:29:02;;;;;;;;;;;19.00;99.90;;;;;;5055650;28;20382;-82
2021/08/03 11:31:40;;;;;;;;;;;19.10;99.90;;;;;;5053387;28;19916;-82
2021/08/03 11:34:06;;;;;;;;;;;19.10;99.90;;;;;;5048533;28;19917;-83
2021/08/03 11:36:32;;;;;;;;;;;19.10;99.90;;;;;;5065427;28;19924;-81
2021/08/03 11:38:58;;;;;;;;;;;19.30;99.90;;;;;;5048255;28;19925;-82
2021/08/03 11:41:24;;;;;;;;;;;19.30;99.90;;;;;;5028695;28;19920;-79
2021/08/03 11:43:50;;;;;;;;;;;19.30;99.90;;;;;;5025973;28;19925;-78
2021/08/03 11:46:23;;;;;;;;;;;19.30;99.90;;;;;;5035121;28;20012;-80
2021/08/03 11:49:00;;;;;;;;;;;19.40;99.90;;;;;;5028300;28;20264;-81
2021/08/03 11:51:33;;;;;;;;;;;19.40;99.90;;;;;;5031728;28;20017;-81
2021/08/03 11:54:11;;;;;;;;;;;19.40;99.90;;;;;;5043698;28;19920;-84
2021/08/03 11:56:36;;;;;;;;;;;19.50;99.90;;;;;;5031580;28;20251;-83
2021/08/03 11:59:02;;;;;;;;;;;19.30;99.90;;;;;;5027651;28;19960;-81
2021/08/03 12:01:46;;;;;;;;;;;19.20;99.90;;;;;;5020709;28;19917;-78
2021/08/03 12:04:13;;;;;;;;;;;19.10;99.90;;;;;;5028932;28;19914;-81
2021/08/03 12:06:39;;;;;;;;;;;19.20;99.90;;;;;;5025801;28;19913;-83
2021/08/03 12:09:04;;;;;;;;;;;19.40;99.90;;;;;;5027662;28;20016;-81
2021/08/03 12:11:30;;;;;;;;;;;19.50;99.90;;;;;;5019154;28;19920;-80
2021/08/03 12:14:06;;;;;;;;;;;19.40;99.90;;;;;;5031069;28;20308;-83
2021/08/03 12:16:31;;;;;;;;;;;19.10;99.90;;;;;;5023333;28;19972;-79
2021/08/03 12:18:57;;;;;;;;;;;19.00;99.90;;;;;;5038880;28;19953;-78
2021/08/03 12:21:33;;;;;;;;;;;18.90;99.90;;;;;;5035770;28;19924;-79
2021/08/03 12:24:06;;;;;;;;;;;18.80;99.90;;;;;;5021839;28;19918;-81
2021/08/03 12:26:31;;;;;;;;;;;18.60;99.90;;;;;;5025072;28;19916;-80
2021/08/03 12:28:59;;;;;;;;;;;18.50;99.90;;;;;;5033023;28;19913;-85
2021/08/03 12:31:30;;;;;;;;;;;18.40;99.90;;;;;;5035818;28;19921;-81
2021/08/03 12:34:09;;;;;;;;;;;18.40;99.90;;;;;;5034995;28;19913;-79
2021/08/03 12:36:42;;;;;;;;;;;18.30;99.90;;;;;;5036152;28;20208;-81
2021/08/03 12:39:10;;;;;;;;;;;18.20;99.90;;;;;;5053512;28;19931;-80
2021/08/03 12:41:37;;;;;;;;;;;18.10;99.90;;;;;;5065112;28;19913;-78
2021/08/03 12:44:03;;;;;;;;;;;18.10;99.90;;;;;;5050092;28;20003;-82
2021/08/03 12:46:38;;;;;;;;;;;18.00;99.90;;;;;;5054411;28;19996;-81
2021/08/03 12:49:06;;;;;;;;;;;18.00;99.90;;;;;;5065271;28;20189;-80
2021/08/03 12:51:33;;;;;;;;;;;17.90;99.90;;;;;;5063460;28;19916;-77
2021/08/03 12:54:13;;;;;;;;;;;17.80;99.90;;;;;;5045637;28;20231;-85
2021/08/03 12:56:56;;;;;;;;;;;17.80;99.90;;;;;;5047258;28;20251;-83
2021/08/03 12:59:34;;;;;;;;;;;17.70;99.90;;;;;;5046209;28;19908;-77
2021/08/03 13:02:00;;;;;;;;;;;17.70;99.90;;;;;;5064488;28;19920;-79
2021/08/03 13:04:25;;;;;;;;;;;17.60;99.90;;;;;;5067589;28;19913;-77
2021/08/03 13:06:52;;;;;;;;;;;17.50;99.90;;;;;;5049889;28;19909;-81
2021/08/03 13:09:17;;;;;;;;;;;17.50;99.90;;;;;;5070722;28;20014;-84
2021/08/03 13:11:43;;;;;;;;;;;17.50;99.90;;;;;;5066879;28;20003;-78
2021/08/03 13:14:08;;;;;;;;;;;17.40;99.90;;;;;;5054678;28;19912;-79
2021/08/03 13:16:34;;;;;;;;;;;17.40;99.90;;;;;;5048187;28;19924;-78
2021/08/03 13:19:00;;;;;;;;;;;17.30;99.90;;;;;;5065749;28;20364;-81
2021/08/03 13:21:25;;;;;;;;;;;17.30;99.90;;;;;;5062903;28;19917;-79
2021/08/03 13:23:51;;;;;;;;;;;17.30;99.90;;;;;;5051012;28;19918;-81
2021/08/03 13:26:16;;;;;;;;;;;17.20;99.90;;;;;;5054451;28;19912;-78
2021/08/03 13:28:42;;;;;;;;;;;17.20;99.90;;;;;;5067142;28;19916;-81
2021/08/03 13:31:07;;;;;;;;;;;17.20;99.90;;;;;;5054818;28;20313;-81
2021/08/03 13:33:33;;;;;;;;;;;17.20;99.90;;;;;;5047446;28;19912;-79
2021/08/03 13:35:58;;;;;;;;;;;17.30;99.90;;;;;;5045485;28;19917;-80
2021/08/03 13:38:27;;;;;;;;;;;17.30;99.90;;;;;;5048812;28;20003;-80
2021/08/03 13:40:52;;;;;;;;;;;17.30;99.90;;;;;;5053094;28;20473;-81
2021/08/03 13:43:18;;;;;;;;;;;17.30;99.90;;;;;;5050416;28;19999;-78
2021/08/03 13:45:44;;;;;;;;;;;17.30;99.90;;;;;;5071847;28;20269;-79
2021/08/03 13:48:09;;;;;;;;;;;17.30;99.90;;;;;;5060688;28;19915;-80
2021/08/03 13:50:35;;;;;;;;;;;17.20;99.90;;;;;;5052417;28;19919;-78
2021/08/03 13:53:01;;;;;;;;;;;17.20;99.90;;;;;;5046207;28;20288;-79
2021/08/03 13:55:27;;;;;;;;;;;17.10;99.90;;;;;;5052253;28;19944;-83
2021/08/03 13:57:53;;;;;;;;;;;17.00;99.90;;;;;;5056878;28;19924;-78
2021/08/03 14:00:18;;;;;;;;;;;16.90;99.90;;;;;;5056045;28;19995;-78
2021/08/03 14:02:44;;;;;;;;;;;16.90;99.90;;;;;;5051328;28;20039;-79
2021/08/03 14:05:11;;;;;;;;;;;17.00;99.90;;;;;;5075636;28;19909;-78
2021/08/03 14:07:37;;;;;;;;;;;17.00;99.90;;;;;;5057886;28;19913;-82
2021/08/03 14:10:03;;;;;;;;;;;17.00;99.90;;;;;;5070821;28;20474;-81
2021/08/03 14:12:29;;;;;;;;;;;17.00;99.90;;;;;;5064652;28;19915;-79
2021/08/03 14:14:55;;;;;;;;;;;17.10;99.90;;;;;;5058201;28;19913;-78
2021/08/03 14:17:20;;;;;;;;;;;17.10;99.90;;;;;;5055044;28;19921;-78
2021/08/03 14:19:46;;;;;;;;;;;17.20;99.90;;;;;;5075664;28;20323;-78
2021/08/03 14:22:12;;;;;;;;;;;17.20;99.90;;;;;;5058104;28;19912;-79
2021/08/03 14:24:39;;;;;;;;;;;17.30;99.90;;;;;;5071258;28;19931;-80